Time;durP1;ratioP1;P1;durP2;ratioP2;P2;SDS_P1;SDS_P2;PMS_P1;PMS_P2;Temp;Humidity;BMP_temperature;BMP_pressure;BME280_temperature;BME280_humidity;BME280_pressure;Samples;Min_cycle;Max_cycle;Signal;HPM_P1;HPM_P2
2023/12/31 00:00:28;;;;;;;6.53;5.50;;;4.40;99.90;;;;;;5019788;28;20512;-62
2023/12/31 00:02:53;;;;;;;7.13;5.63;;;4.40;99.90;;;;;;5021500;28;20548;-62
2023/12/31 00:05:19;;;;;;;6.43;5.10;;;4.40;99.90;;;;;;5023054;28;20034;-63
2023/12/31 00:07:45;;;;;;;8.80;5.47;;;4.50;99.90;;;;;;5018747;28;20037;-63
2023/12/31 00:10:11;;;;;;;6.40;4.75;;;4.50;99.90;;;;;;5018766;28;20080;-62
2023/12/31 00:12:37;;;;;;;9.27;6.10;;;4.50;99.90;;;;;;5019968;28;20034;-61
2023/12/31 00:15:04;;;;;;;6.78;5.13;;;4.50;99.90;;;;;;5019053;28;20034;-63
2023/12/31 00:17:30;;;;;;;5.22;4.43;;;4.50;99.90;;;;;;5015592;28;20112;-63
2023/12/31 00:19:56;;;;;;;7.88;5.45;;;4.50;99.90;;;;;;5018798;28;20121;-62
2023/12/31 00:22:22;;;;;;;6.88;5.22;;;4.50;99.90;;;;;;5018570;28;20078;-63
2023/12/31 00:24:51;;;;;;;7.28;5.15;;;4.60;99.90;;;;;;5017193;28;20515;-63
2023/12/31 00:27:17;;;;;;;8.52;5.07;;;4.60;99.90;;;;;;5020055;28;20032;-62
2023/12/31 00:29:44;;;;;;;6.40;3.80;;;4.60;99.90;;;;;;5018045;28;20418;-63
2023/12/31 00:32:10;;;;;;;4.35;3.83;;;4.60;99.90;;;;;;5021072;28;20031;-62
2023/12/31 00:34:36;;;;;;;7.68;4.70;;;4.60;99.90;;;;;;5019687;28;20040;-63
2023/12/31 00:37:03;;;;;;;6.18;5.00;;;4.60;99.90;;;;;;5017526;28;20018;-63
2023/12/31 00:39:28;;;;;;;6.28;4.65;;;4.50;99.90;;;;;;5017565;28;20053;-62
2023/12/31 00:41:54;;;;;;;8.18;4.03;;;4.50;99.90;;;;;;5017789;28;20123;-62
2023/12/31 00:44:20;;;;;;;6.20;4.18;;;4.50;99.90;;;;;;5020943;28;20026;-62
2023/12/31 00:46:45;;;;;;;8.45;3.92;;;4.50;99.90;;;;;;5018618;28;20038;-60
2023/12/31 00:49:11;;;;;;;5.03;3.85;;;4.50;99.90;;;;;;5018933;28;20025;-62
2023/12/31 00:51:37;;;;;;;4.22;3.15;;;4.50;99.90;;;;;;5020298;28;20042;-62
2023/12/31 00:54:02;;;;;;;5.80;3.25;;;4.50;99.90;;;;;;5019908;28;20481;-62
2023/12/31 00:56:28;;;;;;;4.30;3.50;;;4.40;99.90;;;;;;5018623;28;20052;-63
2023/12/31 00:58:54;;;;;;;4.95;3.60;;;4.40;99.90;;;;;;5020110;28;20034;-63
2023/12/31 01:01:19;;;;;;;4.25;3.42;;;4.30;99.90;;;;;;5019103;28;20034;-60
2023/12/31 01:03:45;;;;;;;6.32;3.58;;;4.20;99.90;;;;;;5022722;28;20478;-63
2023/12/31 01:06:11;;;;;;;5.30;4.10;;;4.10;99.90;;;;;;5018651;28;20029;-62
2023/12/31 01:08:36;;;;;;;5.00;3.92;;;4.00;99.90;;;;;;5018595;28;20116;-61
2023/12/31 01:11:02;;;;;;;8.98;3.40;;;3.90;99.90;;;;;;5020098;28;20113;-61
2023/12/31 01:13:28;;;;;;;6.13;3.53;;;3.80;99.90;;;;;;5020243;28;20503;-61
2023/12/31 01:15:53;;;;;;;4.90;3.50;;;3.80;99.90;;;;;;5018152;28;20034;-61
2023/12/31 01:18:19;;;;;;;7.22;3.67;;;3.80;99.90;;;;;;5021473;28;20065;-62
2023/12/31 01:20:46;;;;;;;6.35;4.25;;;3.80;99.90;;;;;;5021357;28;20402;-63
2023/12/31 01:23:11;;;;;;;5.25;3.05;;;3.70;99.90;;;;;;5022110;28;20148;-63
2023/12/31 01:25:37;;;;;;;3.47;2.83;;;3.70;99.90;;;;;;5021715;28;20066;-63
2023/12/31 01:28:03;;;;;;;5.75;3.25;;;3.70;99.90;;;;;;5022391;28;20025;-61
2023/12/31 01:30:29;;;;;;;6.43;3.53;;;3.70;99.90;;;;;;5018168;28;20030;-61
2023/12/31 01:32:56;;;;;;;8.27;4.28;;;3.70;99.90;;;;;;5023404;28;20481;-62
2023/12/31 01:35:21;;;;;;;5.35;2.97;;;3.70;99.90;;;;;;5021655;28;20892;-63
2023/12/31 01:37:47;;;;;;;5.05;3.13;;;3.70;99.90;;;;;;5021365;28;20030;-62
2023/12/31 01:40:13;;;;;;;9.00;3.45;;;3.70;99.90;;;;;;5020830;28;20441;-61
2023/12/31 01:42:38;;;;;;;4.68;4.18;;;3.60;99.90;;;;;;5022009;28;20540;-63
2023/12/31 01:45:05;;;;;;;5.03;3.38;;;3.60;99.90;;;;;;5019512;28;20022;-63
2023/12/31 01:47:35;;;;;;;4.28;3.53;;;3.50;99.90;;;;;;5021192;28;20518;-60
2023/12/31 01:50:03;;;;;;;6.18;4.00;;;3.50;99.90;;;;;;5020010;28;20045;-61
2023/12/31 01:52:29;;;;;;;5.78;3.10;;;3.50;99.90;;;;;;5023458;28;20013;-62
2023/12/31 01:54:57;;;;;;;7.57;3.92;;;3.40;99.90;;;;;;5021715;28;20033;-62
2023/12/31 01:57:26;;;;;;;5.20;3.45;;;3.40;99.90;;;;;;5020566;28;20033;-62
2023/12/31 01:59:53;;;;;;;6.05;3.25;;;3.40;99.90;;;;;;5022168;28;20036;-61
2023/12/31 02:02:21;;;;;;;6.00;3.28;;;3.30;99.90;;;;;;5019392;28;20030;-62
2023/12/31 02:04:46;;;;;;;5.68;3.83;;;3.30;99.90;;;;;;5019544;28;20043;-62
2023/12/31 02:07:12;;;;;;;5.43;3.67;;;3.20;99.90;;;;;;5017696;28;20474;-61
2023/12/31 02:09:38;;;;;;;7.05;4.20;;;3.20;99.90;;;;;;5022147;28;20041;-61
2023/12/31 02:12:05;;;;;;;6.70;4.45;;;3.20;99.90;;;;;;5019926;28;20072;-62
2023/12/31 02:14:31;;;;;;;12.10;6.90;;;3.10;99.90;;;;;;5019786;28;20037;-62
2023/12/31 02:16:56;;;;;;;7.60;4.00;;;3.10;99.90;;;;;;5018175;28;20044;-63
2023/12/31 02:19:23;;;;;;;6.38;4.68;;;3.10;99.90;;;;;;5023495;28;20061;-61
2023/12/31 02:21:49;;;;;;;6.38;4.35;;;3.10;99.90;;;;;;5020681;28;20466;-64
2023/12/31 02:24:18;;;;;;;5.50;3.85;;;3.10;99.90;;;;;;5021346;28;20060;-63
2023/12/31 02:26:44;;;;;;;5.55;3.45;;;3.00;99.90;;;;;;5017688;28;20039;-62
2023/12/31 02:29:10;;;;;;;9.77;5.60;;;3.00;99.90;;;;;;5021104;28;20025;-61
2023/12/31 02:31:35;;;;;;;5.32;3.22;;;3.00;99.90;;;;;;5020867;28;20030;-63
2023/12/31 02:34:01;;;;;;;6.63;2.85;;;3.00;99.90;;;;;;5020145;28;20022;-62
2023/12/31 02:36:27;;;;;;;9.50;4.03;;;3.00;99.90;;;;;;5015482;28;20488;-63
2023/12/31 02:38:52;;;;;;;4.53;3.45;;;3.00;99.90;;;;;;5019598;28;20025;-61
2023/12/31 02:41:18;;;;;;;7.25;3.67;;;3.00;99.90;;;;;;5020079;28;20025;-61
2023/12/31 02:43:44;;;;;;;4.28;3.42;;;2.90;99.90;;;;;;5019713;28;20034;-62
2023/12/31 02:46:10;;;;;;;4.95;3.17;;;2.90;99.90;;;;;;5022326;28;20026;-62
2023/12/31 02:48:36;;;;;;;7.50;3.17;;;2.90;99.90;;;;;;5023769;28;20029;-64
2023/12/31 02:51:01;;;;;;;4.32;3.25;;;2.90;99.90;;;;;;5019607;28;20034;-62
2023/12/31 02:53:27;;;;;;;5.20;3.70;;;2.80;99.90;;;;;;5021346;28;20030;-61
2023/12/31 02:55:52;;;;;;;5.18;3.50;;;2.80;99.90;;;;;;5020781;28;20038;-61
2023/12/31 02:58:18;;;;;;;5.15;3.63;;;2.80;99.90;;;;;;5020835;28;20366;-61
2023/12/31 03:00:44;;;;;;;4.22;3.28;;;2.80;99.90;;;;;;5021171;28;20029;-62
2023/12/31 03:03:09;;;;;;;5.82;3.63;;;2.80;99.90;;;;;;5018446;28;20041;-61
2023/12/31 03:05:35;;;;;;;6.63;3.75;;;2.70;99.90;;;;;;5021662;28;20033;-62
2023/12/31 03:08:00;;;;;;;4.38;3.13;;;2.70;99.90;;;;;;5020746;28;20041;-62
2023/12/31 03:10:27;;;;;;;4.57;3.20;;;2.70;99.90;;;;;;5022632;28;20033;-63
2023/12/31 03:12:53;;;;;;;4.85;3.83;;;2.70;99.90;;;;;;5021124;28;20152;-62
2023/12/31 03:15:22;;;;;;;4.78;3.10;;;2.70;99.90;;;;;;5022510;28;20497;-62
2023/12/31 03:17:48;;;;;;;4.53;3.58;;;2.70;99.90;;;;;;5021046;28;20022;-61
2023/12/31 03:20:14;;;;;;;5.15;3.47;;;2.70;99.90;;;;;;5017357;28;20029;-62
2023/12/31 03:22:39;;;;;;;6.05;3.70;;;2.60;99.90;;;;;;5020461;28;20029;-61
2023/12/31 03:25:05;;;;;;;5.10;3.67;;;2.60;99.90;;;;;;5020258;28;20343;-63
2023/12/31 03:27:31;;;;;;;4.05;3.15;;;2.60;99.90;;;;;;5019903;28;20052;-63
2023/12/31 03:29:57;;;;;;;11.30;4.80;;;2.60;99.90;;;;;;5019530;28;20053;-62
2023/12/31 03:32:23;;;;;;;7.68;4.18;;;2.60;99.90;;;;;;5018180;28;20582;-62
2023/12/31 03:34:49;;;;;;;5.22;3.60;;;2.60;99.90;;;;;;5022448;28;20034;-62
2023/12/31 03:37:15;;;;;;;5.07;4.03;;;2.60;99.90;;;;;;5017260;28;20025;-61
2023/12/31 03:39:41;;;;;;;6.20;4.35;;;2.60;99.90;;;;;;5020720;28;20127;-61
2023/12/31 03:42:07;;;;;;;4.60;4.07;;;2.50;99.90;;;;;;5019294;28;20041;-62
2023/12/31 03:44:32;;;;;;;8.32;5.60;;;2.50;99.90;;;;;;5010905;28;20372;-61
2023/12/31 03:46:58;;;;;;;5.35;4.55;;;2.60;99.90;;;;;;5017206;28;20037;-62
2023/12/31 03:49:24;;;;;;;5.20;4.18;;;2.50;99.90;;;;;;5018222;28;20490;-62
2023/12/31 03:51:49;;;;;;;8.02;5.25;;;2.60;99.90;;;;;;5020187;28;20038;-61
2023/12/31 03:54:15;;;;;;;7.53;4.45;;;2.60;99.90;;;;;;5018180;28;20037;-61
2023/12/31 03:56:41;;;;;;;5.90;4.57;;;2.60;99.90;;;;;;5017983;28;20042;-63
2023/12/31 03:59:06;;;;;;;4.93;4.43;;;2.60;99.90;;;;;;5018822;28;20028;-63
2023/12/31 04:01:32;;;;;;;10.73;4.80;;;2.60;99.90;;;;;;5016598;28;20026;-63
2023/12/31 04:03:58;;;;;;;5.00;4.20;;;2.60;99.90;;;;;;5019737;28;20106;-63
2023/12/31 04:06:24;;;;;;;6.57;5.05;;;2.60;99.90;;;;;;5019099;28;20033;-62
2023/12/31 04:08:49;;;;;;;6.00;5.43;;;2.70;99.90;;;;;;5015959;28;20044;-61
2023/12/31 04:11:15;;;;;;;8.82;6.07;;;2.60;99.90;;;;;;5020087;28;20036;-63
2023/12/31 04:13:41;;;;;;;8.23;5.70;;;2.70;99.90;;;;;;5020261;28;20117;-63
2023/12/31 04:16:10;;;;;;;6.85;5.90;;;2.70;99.90;;;;;;5020570;28;20099;-62
2023/12/31 04:18:35;;;;;;;8.05;6.05;;;2.60;99.90;;;;;;5020958;28;20497;-62
2023/12/31 04:21:02;;;;;;;10.15;6.82;;;2.70;99.90;;;;;;5016992;28;20033;-62
2023/12/31 04:23:28;;;;;;;9.07;7.05;;;2.60;99.90;;;;;;5019218;28;20032;-61
2023/12/31 04:25:54;;;;;;;7.85;6.75;;;2.60;99.90;;;;;;5020340;28;20037;-62
2023/12/31 04:28:19;;;;;;;8.75;7.03;;;2.70;99.90;;;;;;5019883;28;20075;-61
2023/12/31 04:30:45;;;;;;;10.60;6.90;;;2.70;99.90;;;;;;5019587;28;20034;-61
2023/12/31 04:33:10;;;;;;;9.35;6.70;;;2.80;99.90;;;;;;5020333;28;20032;-63
2023/12/31 04:35:36;;;;;;;7.60;6.90;;;2.80;99.90;;;;;;5017455;28;20111;-62
2023/12/31 04:38:02;;;;;;;9.77;7.00;;;2.80;99.90;;;;;;5019622;28;20042;-61
2023/12/31 04:40:28;;;;;;;9.10;7.70;;;2.70;99.90;;;;;;5019389;28;20026;-63
2023/12/31 04:42:53;;;;;;;11.88;8.85;;;2.70;99.90;;;;;;5020266;28;20035;-63
2023/12/31 04:45:19;;;;;;;8.35;7.35;;;2.70;99.90;;;;;;5015529;28;20034;-62
2023/12/31 04:47:44;;;;;;;12.45;7.05;;;2.70;99.90;;;;;;5018928;28;20061;-61
2023/12/31 04:50:10;;;;;;;11.20;8.48;;;2.70;99.90;;;;;;5019644;28;20033;-62
2023/12/31 04:52:36;;;;;;;8.93;7.72;;;2.70;99.90;;;;;;5019189;28;20783;-62
2023/12/31 04:55:02;;;;;;;15.00;9.85;;;2.70;99.90;;;;;;5024255;28;20029;-62
2023/12/31 04:57:28;;;;;;;12.07;10.15;;;2.80;99.90;;;;;;5024052;28;20448;-62
2023/12/31 04:59:53;;;;;;;15.20;10.82;;;2.80;99.90;;;;;;5026815;28;20160;-62
2023/12/31 05:02:19;;;;;;;13.70;11.57;;;2.90;99.90;;;;;;5025020;28;20041;-62
2023/12/31 05:04:44;;;;;;;11.40;10.30;;;3.00;99.90;;;;;;5022245;28;20125;-61
2023/12/31 05:07:11;;;;;;;13.07;9.77;;;3.00;99.90;;;;;;5024099;28;20024;-63
2023/12/31 05:09:37;;;;;;;13.65;10.52;;;3.00;99.90;;;;;;5022191;28;20494;-62
2023/12/31 05:12:03;;;;;;;11.93;10.25;;;3.00;99.90;;;;;;5020315;28;20049;-63
2023/12/31 05:14:29;;;;;;;12.40;11.10;;;3.00;99.90;;;;;;5020027;28;20026;-62
2023/12/31 05:16:54;;;;;;;13.52;11.20;;;2.90;99.90;;;;;;5022840;28;20382;-62
2023/12/31 05:19:20;;;;;;;13.23;11.82;;;3.00;99.90;;;;;;5023706;28;20018;-61
2023/12/31 05:21:45;;;;;;;12.80;11.50;;;3.00;99.90;;;;;;5019953;28;20061;-61
2023/12/31 05:24:11;;;;;;;16.65;12.88;;;3.00;99.90;;;;;;5023816;28;20556;-62
2023/12/31 05:26:37;;;;;;;16.27;12.60;;;3.00;99.90;;;;;;5022638;28;20042;-63
2023/12/31 05:29:03;;;;;;;20.13;13.93;;;3.00;99.90;;;;;;5021373;28;20487;-63
2023/12/31 05:31:28;;;;;;;16.98;12.52;;;3.00;99.90;;;;;;5025150;28;20030;-61
2023/12/31 05:33:54;;;;;;;18.08;13.45;;;3.00;99.90;;;;;;5019182;28;20125;-61
2023/12/31 05:36:20;;;;;;;14.27;12.85;;;3.00;99.90;;;;;;5019987;28;20517;-62
2023/12/31 05:38:46;;;;;;;15.98;13.25;;;3.00;99.90;;;;;;5022600;28;20116;-62
2023/12/31 05:41:11;;;;;;;16.13;13.25;;;3.10;99.90;;;;;;5021304;28;20410;-62
2023/12/31 05:43:37;;;;;;;20.88;13.68;;;3.10;99.90;;;;;;5023512;28;20037;-64
2023/12/31 05:46:03;;;;;;;15.75;12.95;;;3.20;99.90;;;;;;5020453;28;20033;-62
2023/12/31 05:48:28;;;;;;;19.48;13.48;;;3.20;99.90;;;;;;5021412;28;20400;-63
2023/12/31 05:50:54;;;;;;;18.70;14.80;;;3.30;99.90;;;;;;5021087;28;20048;-61
2023/12/31 05:53:20;;;;;;;19.63;13.07;;;3.40;99.90;;;;;;5021411;28;20030;-63
2023/12/31 05:55:46;;;;;;;18.85;13.63;;;3.40;99.90;;;;;;5023218;28;20513;-63
2023/12/31 05:58:12;;;;;;;18.80;13.93;;;3.40;99.90;;;;;;5023695;28;20013;-62
2023/12/31 06:00:38;;;;;;;21.77;14.50;;;3.40;99.90;;;;;;5021947;28;20033;-63
2023/12/31 06:03:04;;;;;;;17.95;12.85;;;3.40;99.90;;;;;;5021812;28;20040;-63
2023/12/31 06:05:29;;;;;;;18.80;13.88;;;3.50;99.90;;;;;;5027091;28;20042;-61
2023/12/31 06:07:55;;;;;;;17.23;13.88;;;3.50;99.90;;;;;;5020034;28;20395;-61
2023/12/31 06:10:21;;;;;;;15.88;13.13;;;3.40;99.90;;;;;;5020508;28;20484;-61
2023/12/31 06:12:46;;;;;;;17.70;13.90;;;3.40;99.90;;;;;;5023343;28;20017;-62
2023/12/31 06:15:12;;;;;;;14.75;12.27;;;3.40;99.90;;;;;;5021391;28;20057;-63
2023/12/31 06:17:38;;;;;;;17.48;13.25;;;3.30;99.90;;;;;;5023594;28;20124;-61
2023/12/31 06:20:06;;;;;;;14.52;12.20;;;3.30;99.90;;;;;;5023764;28;20473;-63
2023/12/31 06:22:32;;;;;;;16.05;12.90;;;3.30;99.90;;;;;;5022704;28;20032;-61
2023/12/31 06:24:58;;;;;;;14.77;12.35;;;3.30;99.90;;;;;;5022823;28;20053;-61
2023/12/31 06:27:24;;;;;;;15.85;13.60;;;3.30;99.90;;;;;;5021293;28;20064;-61
2023/12/31 06:29:50;;;;;;;15.98;12.05;;;3.30;99.90;;;;;;5019638;28;20033;-62
2023/12/31 06:32:16;;;;;;;16.52;13.65;;;3.30;99.90;;;;;;5021427;28;20449;-61
2023/12/31 06:34:42;;;;;;;17.75;13.52;;;3.30;99.90;;;;;;5022804;28;20120;-62
2023/12/31 06:37:08;;;;;;;16.67;12.85;;;3.30;99.90;;;;;;5022021;28;20128;-61
2023/12/31 06:39:33;;;;;;;16.10;12.57;;;3.30;99.90;;;;;;5022003;28;20092;-63
2023/12/31 06:41:59;;;;;;;15.98;13.07;;;3.40;99.90;;;;;;5022142;28;20030;-63
2023/12/31 06:44:24;;;;;;;17.30;13.13;;;3.40;99.90;;;;;;5019747;28;20061;-63
2023/12/31 06:46:50;;;;;;;15.50;12.57;;;3.40;99.90;;;;;;5018846;28;20033;-61
2023/12/31 06:49:16;;;;;;;16.73;12.73;;;3.40;99.90;;;;;;5020227;28;20079;-63
2023/12/31 06:51:41;;;;;;;15.52;12.13;;;3.40;99.90;;;;;;5021813;28;20100;-62
2023/12/31 06:54:07;;;;;;;19.08;13.65;;;3.50;99.90;;;;;;5019571;28;20109;-63
2023/12/31 06:56:33;;;;;;;17.60;14.30;;;3.50;99.90;;;;;;5019674;28;20095;-62
2023/12/31 06:58:58;;;;;;;17.15;12.77;;;3.50;99.90;;;;;;5020847;28;20109;-61
2023/12/31 07:01:24;;;;;;;17.02;13.18;;;3.50;99.90;;;;;;5021253;28;20116;-61
2023/12/31 07:03:49;;;;;;;18.23;13.25;;;3.60;99.90;;;;;;5019265;28;20560;-63
2023/12/31 07:06:15;;;;;;;15.02;12.73;;;3.50;99.90;;;;;;5020743;28;20029;-61
2023/12/31 07:08:41;;;;;;;15.52;12.40;;;3.50;99.90;;;;;;5021929;28;20560;-61
2023/12/31 07:11:06;;;;;;;13.95;12.50;;;3.60;99.90;;;;;;5018831;28;20038;-62
2023/12/31 07:13:32;;;;;;;14.52;12.85;;;3.60;99.90;;;;;;5018863;28;20025;-62
2023/12/31 07:15:58;;;;;;;15.65;13.27;;;3.60;99.90;;;;;;5019412;28;20505;-62
2023/12/31 07:18:25;;;;;;;16.92;12.77;;;3.60;99.90;;;;;;5020946;28;20176;-62
2023/12/31 07:20:52;;;;;;;15.38;12.05;;;3.60;99.90;;;;;;5019229;28;20036;-62
2023/12/31 07:23:17;;;;;;;14.98;11.57;;;3.70;99.90;;;;;;5021128;28;20029;-61
2023/12/31 07:25:43;;;;;;;15.05;12.32;;;3.80;99.90;;;;;;5020042;28;20030;-61
2023/12/31 07:28:09;;;;;;;16.38;12.15;;;3.80;99.90;;;;;;5018526;28;20478;-62
2023/12/31 07:30:34;;;;;;;14.82;11.52;;;3.90;99.90;;;;;;5018823;28;20087;-62
2023/12/31 07:33:00;;;;;;;16.42;11.35;;;4.00;99.90;;;;;;5020137;28;20026;-61
2023/12/31 07:35:26;;;;;;;13.93;10.93;;;4.00;99.90;;;;;;5019693;28;20647;-62
2023/12/31 07:37:52;;;;;;;16.27;10.50;;;4.10;99.90;;;;;;5016105;28;20026;-61
2023/12/31 07:40:17;;;;;;;12.85;11.48;;;4.10;99.90;;;;;;5018038;28;20022;-61
2023/12/31 07:42:43;;;;;;;12.93;10.50;;;4.10;99.90;;;;;;5021052;28;20145;-61
2023/12/31 07:45:09;;;;;;;11.63;10.20;;;4.20;99.90;;;;;;5020755;28;20083;-63
2023/12/31 07:47:35;;;;;;;12.07;10.88;;;4.20;99.90;;;;;;5020851;28;20025;-64
2023/12/31 07:50:07;;;;;;;11.80;10.50;;;4.20;99.90;;;;;;5018534;28;20475;-61
2023/12/31 07:52:33;;;;;;;11.57;10.38;;;4.30;99.90;;;;;;5016579;28;20083;-60
2023/12/31 07:54:59;;;;;;;12.73;10.18;;;4.30;99.90;;;;;;5017769;28;20029;-63
2023/12/31 07:57:24;;;;;;;12.10;10.07;;;4.40;99.90;;;;;;5019003;28;20041;-63
2023/12/31 07:59:50;;;;;;;10.80;9.70;;;4.40;99.90;;;;;;5020461;28;20034;-60
2023/12/31 08:02:15;;;;;;;11.65;10.05;;;4.40;99.90;;;;;;5017217;28;20052;-61
2023/12/31 08:04:41;;;;;;;12.20;10.20;;;4.40;99.90;;;;;;5017281;28;20088;-63
2023/12/31 08:07:07;;;;;;;15.85;10.13;;;4.40;99.90;;;;;;5020022;28;20022;-64
2023/12/31 08:09:32;;;;;;;11.13;10.02;;;4.50;99.90;;;;;;5018295;28;20044;-62
2023/12/31 08:11:58;;;;;;;10.77;9.40;;;4.50;99.90;;;;;;5018934;28;20050;-61
2023/12/31 08:14:24;;;;;;;10.57;8.68;;;4.50;99.90;;;;;;5018847;28;20156;-62
2023/12/31 08:16:50;;;;;;;9.73;8.70;;;4.60;99.90;;;;;;5016630;28;20038;-61
2023/12/31 08:19:16;;;;;;;12.98;9.32;;;4.60;99.90;;;;;;5017533;28;20593;-62
2023/12/31 08:21:42;;;;;;;10.55;9.45;;;4.60;99.90;;;;;;5017192;28;20073;-63
2023/12/31 08:24:07;;;;;;;9.60;8.60;;;4.60;99.90;;;;;;5016765;28;20100;-63
2023/12/31 08:26:35;;;;;;;11.25;9.45;;;4.60;99.90;;;;;;5020148;28;20370;-62
2023/12/31 08:29:02;;;;;;;11.93;9.15;;;4.60;99.90;;;;;;5017678;28;20049;-62
2023/12/31 08:31:28;;;;;;;9.35;8.27;;;4.60;99.90;;;;;;5016783;28;20029;-61
2023/12/31 08:33:53;;;;;;;11.07;9.75;;;4.70;99.90;;;;;;5017059;28;20036;-62
2023/12/31 08:36:19;;;;;;;11.60;9.13;;;4.70;99.90;;;;;;5018456;28;20704;-61
2023/12/31 08:38:44;;;;;;;12.50;9.73;;;4.70;99.90;;;;;;5024041;28;20034;-61
2023/12/31 08:41:10;;;;;;;9.60;8.70;;;4.70;99.90;;;;;;5018100;28;20041;-61
2023/12/31 08:43:36;;;;;;;12.23;10.07;;;4.70;99.90;;;;;;5016572;28;20126;-62
2023/12/31 08:46:02;;;;;;;11.52;8.82;;;4.80;99.90;;;;;;5019190;28;20029;-61
2023/12/31 08:48:28;;;;;;;10.13;9.05;;;4.80;99.90;;;;;;5017474;28;20797;-61
2023/12/31 08:50:54;;;;;;;10.80;9.73;;;4.80;99.90;;;;;;5019987;28;20092;-61
2023/12/31 08:53:20;;;;;;;11.57;9.82;;;4.90;99.90;;;;;;5017310;28;20080;-61
2023/12/31 08:55:47;;;;;;;10.25;9.25;;;4.90;99.90;;;;;;5018178;28;20038;-62
2023/12/31 08:58:13;;;;;;;10.57;9.13;;;5.00;99.90;;;;;;5017678;28;20474;-64
2023/12/31 09:00:39;;;;;;;10.27;9.13;;;5.00;99.90;;;;;;5017348;28;20033;-62
2023/12/31 09:03:04;;;;;;;9.82;8.77;;;5.00;99.90;;;;;;5019459;28;20132;-62
2023/12/31 09:05:30;;;;;;;10.30;8.98;;;5.10;99.90;;;;;;5019019;28;20041;-61
2023/12/31 09:07:56;;;;;;;11.23;10.02;;;5.10;99.90;;;;;;5018816;28;20093;-62
2023/12/31 09:10:21;;;;;;;9.80;8.82;;;5.20;99.90;;;;;;5014966;28;20544;-62
2023/12/31 09:12:47;;;;;;;10.13;8.85;;;5.30;99.90;;;;;;5018295;28;20504;-64
2023/12/31 09:15:13;;;;;;;10.02;9.02;;;5.30;99.90;;;;;;5017982;28;20037;-62
2023/12/31 09:17:39;;;;;;;9.43;8.52;;;5.40;99.90;;;;;;5017318;28;20057;-62
2023/12/31 09:20:06;;;;;;;9.75;8.32;;;5.40;99.90;;;;;;5018427;28;20033;-62
2023/12/31 09:22:32;;;;;;;9.73;8.70;;;5.40;99.90;;;;;;5020803;28;20061;-62
2023/12/31 09:24:58;;;;;;;9.75;8.82;;;5.50;99.90;;;;;;5018892;28;20505;-61
2023/12/31 09:27:24;;;;;;;9.55;8.65;;;5.50;99.90;;;;;;5018381;28;20037;-62
2023/12/31 09:29:51;;;;;;;10.05;8.90;;;5.50;99.90;;;;;;5017815;28;20109;-62
2023/12/31 09:32:16;;;;;;;11.88;8.82;;;5.50;99.90;;;;;;5016843;28;20384;-60
2023/12/31 09:34:42;;;;;;;11.88;8.68;;;5.50;99.90;;;;;;5016181;28;20041;-63
2023/12/31 09:37:08;;;;;;;9.68;8.68;;;5.50;99.90;;;;;;5018256;28;20105;-62
2023/12/31 09:39:34;;;;;;;9.90;9.00;;;5.60;99.90;;;;;;5021656;28;20125;-62
2023/12/31 09:42:13;;;;;;;10.63;9.43;;;5.60;99.90;;;;;;5023265;28;20124;-61
2023/12/31 09:44:41;;;;;;;10.02;8.98;;;5.60;99.90;;;;;;5021866;28;20030;-64
2023/12/31 09:47:08;;;;;;;10.18;9.05;;;5.60;99.90;;;;;;5022264;28;20494;-62
2023/12/31 09:49:35;;;;;;;10.25;8.98;;;5.50;99.90;;;;;;5019127;28;20029;-61
2023/12/31 09:52:03;;;;;;;10.23;9.13;;;5.50;99.90;;;;;;5020532;28;20092;-62
2023/12/31 09:54:31;;;;;;;8.93;8.00;;;5.50;99.90;;;;;;5022691;28;20033;-62
2023/12/31 09:56:57;;;;;;;10.68;9.38;;;5.50;99.90;;;;;;5018958;28;20527;-61
2023/12/31 09:59:25;;;;;;;10.68;9.48;;;5.50;99.90;;;;;;5018767;28;20574;-63
2023/12/31 10:01:54;;;;;;;10.82;9.75;;;5.50;99.90;;;;;;5019992;28;20103;-61
2023/12/31 10:04:21;;;;;;;10.65;9.38;;;5.60;99.90;;;;;;5025161;28;20675;-61
2023/12/31 10:06:47;;;;;;;9.07;8.20;;;5.60;99.90;;;;;;5023127;28;20022;-61
2023/12/31 10:09:17;;;;;;;9.73;8.70;;;5.60;99.90;;;;;;5021653;28;20502;-62
2023/12/31 10:11:44;;;;;;;9.65;8.68;;;5.70;99.90;;;;;;5022353;28;20038;-62
2023/12/31 10:14:11;;;;;;;9.13;8.32;;;5.70;99.90;;;;;;5019561;28;20038;-62
2023/12/31 10:16:43;;;;;;;10.23;9.20;;;5.70;99.90;;;;;;5019480;28;20034;-61
2023/12/31 10:19:12;;;;;;;12.38;9.05;;;5.70;99.90;;;;;;5021415;28;20014;-62
2023/12/31 10:21:38;;;;;;;10.25;9.15;;;5.70;99.90;;;;;;5023413;28;20037;-63
2023/12/31 10:24:04;;;;;;;10.25;9.13;;;5.70;99.90;;;;;;5022248;28;20044;-63
2023/12/31 10:26:30;;;;;;;9.40;8.50;;;5.80;99.90;;;;;;5022728;28;20424;-62
2023/12/31 10:28:56;;;;;;;9.82;8.35;;;5.90;99.90;;;;;;5018984;28;20037;-63
2023/12/31 10:31:22;;;;;;;13.02;8.77;;;5.90;99.90;;;;;;5024225;28;20029;-62
2023/12/31 10:33:47;;;;;;;10.55;8.95;;;6.00;99.90;;;;;;5022103;28;20083;-63
2023/12/31 10:36:13;;;;;;;9.05;8.13;;;6.00;99.90;;;;;;5021183;28;20026;-63
2023/12/31 10:38:46;;;;;;;9.55;8.63;;;6.00;99.90;;;;;;5020699;28;20049;-62
2023/12/31 10:41:20;;;;;;;9.63;7.75;;;6.10;99.90;;;;;;5022367;28;20065;-63
2023/12/31 10:43:50;;;;;;;9.90;7.55;;;6.20;99.90;;;;;;5020458;28;20053;-64
2023/12/31 10:46:21;;;;;;;8.85;8.05;;;6.20;99.90;;;;;;5018054;28;20014;-61
2023/12/31 10:48:55;;;;;;;9.27;8.38;;;6.40;99.90;;;;;;5022345;28;20463;-62
2023/12/31 10:51:24;;;;;;;8.65;7.78;;;6.60;99.90;;;;;;5019628;28;20038;-63
2023/12/31 10:53:54;;;;;;;11.50;7.60;;;6.80;99.90;;;;;;5016875;28;20183;-61
2023/12/31 10:56:21;;;;;;;8.73;7.60;;;6.80;99.90;;;;;;5019952;28;20029;-62
2023/12/31 10:58:47;;;;;;;8.30;7.45;;;6.80;99.90;;;;;;5020802;28;20033;-61
2023/12/31 11:01:15;;;;;;;9.30;7.45;;;6.80;99.90;;;;;;5020591;28;20018;-61
2023/12/31 11:03:42;;;;;;;11.75;7.85;;;6.70;99.90;;;;;;5022961;28;20034;-61
2023/12/31 11:06:09;;;;;;;11.82;8.10;;;6.70;99.90;;;;;;5015744;28;20128;-62
2023/12/31 11:08:37;;;;;;;7.60;6.88;;;6.80;99.90;;;;;;5020229;28;20033;-64
2023/12/31 11:11:03;;;;;;;9.02;7.43;;;6.80;99.90;;;;;;5021273;28;20505;-61
2023/12/31 11:13:31;;;;;;;9.05;7.47;;;6.80;99.90;;;;;;5021823;28;20052;-62
2023/12/31 11:16:01;;;;;;;8.88;8.02;;;6.80;99.90;;;;;;5020348;28;20038;-62
2023/12/31 11:18:40;;;;;;;7.13;6.43;;;6.80;99.90;;;;;;5020983;28;20048;-62
2023/12/31 11:22:22;;;;;;;7.90;7.10;;;6.90;99.90;;;;;;5020982;28;20022;-63
2023/12/31 11:24:48;;;;;;;7.88;7.07;;;6.90;99.90;;;;;;4930285;29;20034;-63
2023/12/31 11:27:17;;;;;;;8.00;7.20;;;7.00;99.90;;;;;;4929955;29;20028;-63
2023/12/31 11:29:54;;;;;;;7.53;6.82;;;7.00;99.90;;;;;;4981423;28;20044;-64
2023/12/31 11:32:20;;;;;;;7.93;6.80;;;7.10;99.90;;;;;;5021903;28;20497;-63
2023/12/31 11:34:52;;;;;;;7.38;6.68;;;7.10;99.90;;;;;;5018788;28;20069;-63
2023/12/31 11:37:18;;;;;;;6.70;6.03;;;7.10;99.90;;;;;;5023811;28;20021;-62
2023/12/31 11:39:48;;;;;;;10.23;6.88;;;7.10;99.90;;;;;;5018467;28;20029;-62
2023/12/31 11:42:13;;;;;;;7.38;6.40;;;7.00;99.90;;;;;;5023257;28;20510;-61
2023/12/31 11:44:40;;;;;;;7.82;7.03;;;6.90;99.90;;;;;;5019091;28;20064;-62
2023/12/31 11:47:12;;;;;;;7.82;7.03;;;6.90;99.90;;;;;;5018900;28;20033;-61
2023/12/31 11:49:46;;;;;;;6.65;6.05;;;6.90;99.90;;;;;;5017108;28;20025;-62
2023/12/31 11:52:12;;;;;;;6.65;5.53;;;6.90;99.90;;;;;;5020718;28;20021;-61
2023/12/31 11:54:39;;;;;;;8.65;6.82;;;6.90;99.90;;;;;;5020490;28;20046;-60
2023/12/31 11:57:06;;;;;;;6.85;6.15;;;6.90;99.90;;;;;;5019653;28;20030;-64
2023/12/31 11:59:36;;;;;;;7.68;6.28;;;6.90;99.90;;;;;;5016360;28;20088;-61
2023/12/31 12:02:03;;;;;;;7.50;6.43;;;6.90;99.90;;;;;;5020612;28;20116;-61
2023/12/31 12:04:29;;;;;;;7.70;6.55;;;7.00;99.90;;;;;;5018829;28;20021;-63
2023/12/31 12:06:55;;;;;;;5.57;4.97;;;7.00;99.90;;;;;;5022254;28;20056;-62
2023/12/31 12:09:31;;;;;;;7.10;6.00;;;7.10;99.90;;;;;;5020099;28;20046;-62
2023/12/31 12:12:10;;;;;;;6.65;5.78;;;7.00;99.90;;;;;;5016038;28;20457;-62
2023/12/31 12:14:36;;;;;;;6.88;6.13;;;7.00;99.90;;;;;;5017622;28;20033;-61
2023/12/31 12:17:04;;;;;;;5.93;5.32;;;7.10;99.90;;;;;;5017584;28;20038;-61
2023/12/31 12:19:33;;;;;;;6.10;4.90;;;7.10;99.90;;;;;;5016628;28;20028;-62
2023/12/31 12:22:01;;;;;;;5.63;5.00;;;7.10;99.90;;;;;;5019452;28;20034;-62
2023/12/31 12:24:27;;;;;;;6.80;5.57;;;7.20;99.90;;;;;;5015476;28;20506;-61
2023/12/31 12:26:53;;;;;;;5.60;5.03;;;7.20;99.90;;;;;;5018113;28;20080;-61
2023/12/31 12:29:18;;;;;;;8.07;5.47;;;7.20;99.90;;;;;;5019280;28;20460;-62
2023/12/31 12:31:49;;;;;;;5.65;5.07;;;7.20;99.90;;;;;;5018087;28;20498;-62
2023/12/31 12:34:16;;;;;;;6.20;5.60;;;7.20;99.90;;;;;;5019348;28;20060;-61
2023/12/31 12:36:46;;;;;;;7.03;5.65;;;7.20;99.90;;;;;;5015587;28;20050;-62
2023/12/31 12:39:22;;;;;;;6.28;5.63;;;7.20;99.90;;;;;;5017054;28;20509;-61
2023/12/31 12:41:50;;;;;;;6.60;6.00;;;7.20;99.90;;;;;;5020560;28;20107;-61
2023/12/31 12:44:16;;;;;;;5.45;4.95;;;7.10;99.90;;;;;;5016402;28;20065;-61
2023/12/31 12:46:44;;;;;;;6.80;5.68;;;7.20;99.90;;;;;;5017406;28;20025;-62